createdAt,value
2019-02-28T00:01:47.179Z,87885.45
2019-02-28T00:04:14.173Z,87885.08
2019-02-28T00:06:44.068Z,87886.17
2019-02-28T00:09:09.652Z,87889.92
2019-02-28T00:11:39.570Z,87891.78
2019-02-28T00:14:04.973Z,87879.34
2019-02-28T00:16:31.703Z,87876.37
2019-02-28T00:18:58.476Z,87874.05
2019-02-28T00:21:25.227Z,87875.64
2019-02-28T00:23:56.463Z,87868.84
2019-02-28T00:26:20.547Z,87873.28
2019-02-28T00:28:47.297Z,87869.91
2019-02-28T00:31:15.321Z,87869.99
2019-02-28T00:33:42.224Z,87862.88
2019-02-28T00:36:08.972Z,87862.34
2019-02-28T00:38:35.743Z,87858.28
2019-02-28T00:41:02.482Z,87858.08
2019-02-28T00:43:29.271Z,87855.28
2019-02-28T00:45:56.004Z,87856.12
2019-02-28T00:48:22.744Z,87851.37
2019-02-28T00:50:49.625Z,87849.02
2019-02-28T00:53:16.437Z,87850.68
2019-02-28T00:55:45.965Z,87848.84
2019-02-28T00:58:11.799Z,87851.58
2019-02-28T01:00:38.546Z,87853.03
2019-02-28T01:03:05.290Z,87854.95
2019-02-28T01:05:32.101Z,87851.05
2019-02-28T01:07:58.838Z,87845.84
2019-02-28T01:10:25.663Z,87838.16
2019-02-28T01:12:54.314Z,87836.70
2019-02-28T01:15:21.104Z,87837.84
2019-02-28T01:17:47.820Z,87831.33
2019-02-28T01:20:16.096Z,87829.95
2019-02-28T01:22:43.245Z,87824.58
2019-02-28T01:25:15.668Z,87822.42
2019-02-28T01:27:42.420Z,87825.47
2019-02-28T01:30:16.467Z,87822.91
2019-02-28T01:32:43.468Z,87821.78
2019-02-28T01:35:10.617Z,87823.69
2019-02-28T01:37:37.360Z,87813.70
2019-02-28T01:40:07.652Z,87813.12
2019-02-28T01:42:34.392Z,87811.45
2019-02-28T01:45:01.124Z,87814.71
2019-02-28T01:47:27.915Z,87803.84
2019-02-28T01:49:57.703Z,87802.67
2019-02-28T01:52:23.238Z,87800.23
2019-02-28T01:54:50.015Z,87799.94
2019-02-28T01:57:16.746Z,87796.52
2019-02-28T01:59:43.534Z,87790.69
2019-02-28T02:02:10.244Z,87787.03
2019-02-28T02:04:36.972Z,87789.70
2019-02-28T02:07:03.772Z,87781.09
2019-02-28T02:09:30.493Z,87769.77
2019-02-28T02:11:57.973Z,87771.06
2019-02-28T02:14:25.745Z,87758.26
2019-02-28T02:16:52.460Z,87762.28
2019-02-28T02:19:19.193Z,87760.14
2019-02-28T02:21:45.982Z,87748.39
2019-02-28T02:24:12.717Z,87741.66
2019-02-28T02:26:42.370Z,87743.73
2019-02-28T02:29:08.097Z,87738.45
2019-02-28T02:31:35.047Z,87732.00
2019-02-28T02:34:01.842Z,87728.88
2019-02-28T02:36:28.608Z,87726.42
2019-02-28T02:38:55.326Z,87721.61
2019-02-28T02:41:22.122Z,87723.75
2019-02-28T02:43:48.851Z,87726.91
2019-02-28T02:46:20.400Z,87723.17
2019-02-28T02:48:44.161Z,87725.33
2019-02-28T02:51:12.381Z,87725.20
2019-02-28T02:53:42.145Z,87720.38
2019-02-28T02:56:08.052Z,87724.14
2019-02-28T02:58:34.773Z,87714.73
2019-02-28T03:01:01.536Z,87711.69
2019-02-28T03:03:28.265Z,87706.85
2019-02-28T03:05:55.035Z,87713.39
2019-02-28T03:08:21.760Z,87712.34
2019-02-28T03:10:51.909Z,87705.60
2019-02-28T03:13:17.081Z,87703.08
2019-02-28T03:15:43.802Z,87699.83
2019-02-28T03:18:10.589Z,87696.73
2019-02-28T03:20:41.175Z,87701.29
2019-02-28T03:23:05.847Z,87688.22
2019-02-28T03:25:32.662Z,87696.14
2019-02-28T03:27:59.396Z,87687.66
2019-02-28T03:30:31.280Z,87688.67
2019-02-28T03:32:54.737Z,87683.11
2019-02-28T03:35:21.653Z,87688.38
2019-02-28T03:37:48.491Z,87690.00
2019-02-28T03:40:15.274Z,87680.80
2019-02-28T03:42:42.029Z,87690.13
2019-02-28T03:45:12.129Z,87687.85
2019-02-28T03:47:38.926Z,87679.50
2019-02-28T03:50:07.740Z,87681.97
2019-02-28T03:52:41.829Z,87677.70
2019-02-28T03:55:06.796Z,87676.09
2019-02-28T03:57:33.537Z,87671.98
2019-02-28T04:00:00.478Z,87670.36
2019-02-28T04:02:27.323Z,87667.69
2019-02-28T04:04:54.176Z,87673.48
2019-02-28T04:07:20.953Z,87672.80
2019-02-28T04:09:47.693Z,87668.33
2019-02-28T04:12:14.419Z,87677.91
2019-02-28T04:14:41.216Z,87675.59
2019-02-28T04:17:07.927Z,87663.81
2019-02-28T04:19:34.726Z,87674.89
2019-02-28T04:22:01.475Z,87664.55
2019-02-28T04:24:28.215Z,87664.99
2019-02-28T04:26:54.994Z,87661.01
2019-02-28T04:29:21.726Z,87671.58
2019-02-28T04:31:51.381Z,87669.31
2019-02-28T04:34:17.051Z,87656.72
2019-02-28T04:36:43.764Z,87661.52
2019-02-28T04:39:10.557Z,87655.38
2019-02-28T04:41:37.292Z,87658.30
2019-02-28T04:44:04.033Z,87648.55
2019-02-28T04:46:31.831Z,87664.80
2019-02-28T04:48:59.247Z,87662.20
2019-02-28T04:51:25.981Z,87653.86
2019-02-28T04:53:53.764Z,87649.93
2019-02-28T04:56:20.677Z,87652.94
2019-02-28T04:58:47.414Z,87651.72
2019-02-28T05:01:14.179Z,87650.72
2019-02-28T05:03:40.944Z,87648.67
2019-02-28T05:06:07.657Z,87648.77
2019-02-28T05:08:38.623Z,87653.72
2019-02-28T05:11:02.999Z,87650.56
2019-02-28T05:13:29.748Z,87648.89
2019-02-28T05:15:56.507Z,87647.14
2019-02-28T05:18:23.247Z,87645.92
2019-02-28T05:20:49.978Z,87650.34
2019-02-28T05:23:16.815Z,87642.72
2019-02-28T05:25:43.531Z,87645.93
2019-02-28T05:28:10.253Z,87643.05
2019-02-28T05:30:37.048Z,87651.05
2019-02-28T05:33:06.672Z,87641.83
2019-02-28T05:35:32.305Z,87645.48
2019-02-28T05:37:59.119Z,87638.55
2019-02-28T05:40:25.851Z,87637.97
2019-02-28T05:42:54.605Z,87639.11
2019-02-28T05:45:21.167Z,87633.55
2019-02-28T05:47:47.903Z,87630.58
2019-02-28T05:50:16.535Z,87633.13
2019-02-28T05:52:43.206Z,87635.73
2019-02-28T05:55:10.943Z,87640.67
2019-02-28T05:57:39.306Z,87637.02
2019-02-28T06:00:10.432Z,87633.58
2019-02-28T06:02:37.181Z,87632.97
2019-02-28T06:05:08.407Z,87629.52
2019-02-28T06:07:34.911Z,87635.33
2019-02-28T06:10:01.634Z,87634.83
2019-02-28T06:12:28.415Z,87639.56
2019-02-28T06:14:55.134Z,87627.14
2019-02-28T06:17:21.933Z,87632.41
2019-02-28T06:19:48.681Z,87638.66
2019-02-28T06:22:15.411Z,87645.55
2019-02-28T06:24:44.858Z,87645.63
2019-02-28T06:27:10.759Z,87645.30
2019-02-28T06:29:37.586Z,87637.59
2019-02-28T06:32:04.345Z,87637.06
2019-02-28T06:34:33.863Z,87641.04
2019-02-28T06:37:03.835Z,87643.95
2019-02-28T06:39:29.211Z,87643.64
2019-02-28T06:41:55.948Z,87642.28
2019-02-28T06:44:24.208Z,87647.08
2019-02-28T06:46:51.324Z,87652.05
2019-02-28T06:49:18.119Z,87647.02
2019-02-28T06:51:44.836Z,87637.86
2019-02-28T06:54:11.576Z,87641.89
2019-02-28T06:56:38.397Z,87636.41
2019-02-28T06:59:05.603Z,87639.19
2019-02-28T07:01:32.451Z,87634.75
2019-02-28T07:03:59.183Z,87639.70
2019-02-28T07:06:25.905Z,87639.43
2019-02-28T07:08:52.693Z,87636.25
2019-02-28T07:11:39.152Z,87635.30
2019-02-28T07:14:05.950Z,87645.44
2019-02-28T07:16:34.417Z,87633.72
2019-02-28T07:19:01.186Z,87642.75
2019-02-28T07:21:27.984Z,87634.02
2019-02-28T07:23:56.137Z,87630.44
2019-02-28T07:26:22.867Z,87633.44
2019-02-28T07:28:49.648Z,87622.16
2019-02-28T07:31:16.398Z,87624.78
2019-02-28T07:33:44.560Z,87619.94
2019-02-28T07:36:11.719Z,87615.53
2019-02-28T07:38:38.439Z,87617.83
2019-02-28T07:41:05.172Z,87609.52
2019-02-28T07:43:31.964Z,87605.56
2019-02-28T07:45:58.686Z,87604.62
2019-02-28T07:48:28.594Z,87598.38
2019-02-28T07:50:54.005Z,87594.81
2019-02-28T07:53:20.737Z,87595.59
2019-02-28T07:55:47.470Z,87595.94
2019-02-28T07:58:14.317Z,87595.55
2019-02-28T08:00:41.051Z,87596.22
2019-02-28T08:03:11.235Z,87584.73
2019-02-28T08:05:37.047Z,87582.80
2019-02-28T08:08:03.885Z,87587.38
2019-02-28T08:10:32.917Z,87583.59
2019-02-28T08:13:03.182Z,87571.63
2019-02-28T08:15:28.730Z,87579.80
2019-02-28T08:17:55.525Z,87575.25
2019-02-28T08:20:22.245Z,87572.43
2019-02-28T08:22:49.062Z,87565.90
2019-02-28T08:25:15.950Z,87560.36
2019-02-28T08:27:42.679Z,87562.62
2019-02-28T08:30:26.428Z,87554.80
2019-02-28T08:32:53.175Z,87551.21
2019-02-28T08:35:19.904Z,87547.59
2019-02-28T08:37:46.688Z,87551.27
2019-02-28T08:40:17.611Z,87546.23
2019-02-28T08:42:44.326Z,87536.30
2019-02-28T08:45:13.909Z,87531.23
2019-02-28T08:47:40.727Z,87533.61
2019-02-28T08:50:11.548Z,87530.16
2019-02-28T08:52:41.209Z,87531.10
2019-02-28T08:55:13.712Z,87525.72
2019-02-28T08:57:40.445Z,87525.43
2019-02-28T09:00:19.525Z,87525.91
2019-02-28T09:02:46.267Z,87518.11
2019-02-28T09:05:14.206Z,87523.64
2019-02-28T09:07:41.107Z,87525.29
2019-02-28T09:10:23.693Z,87523.48
2019-02-28T09:12:50.562Z,87517.88
2019-02-28T09:15:17.899Z,87515.39
2019-02-28T09:17:45.243Z,87509.59
2019-02-28T09:20:16.033Z,87504.86
2019-02-28T09:22:42.974Z,87510.53
2019-02-28T09:25:23.048Z,87500.14
2019-02-28T09:27:50.190Z,87500.63
2019-02-28T09:30:44.946Z,87494.04
2019-02-28T09:33:11.763Z,87491.42
2019-02-28T09:35:38.503Z,87495.69
2019-02-28T09:38:07.609Z,87484.31
2019-02-28T09:40:33.851Z,87481.60
2019-02-28T09:43:00.569Z,87477.48
2019-02-28T09:45:29.666Z,87466.70
2019-02-28T09:48:00.750Z,87473.88
2019-02-28T09:50:25.150Z,87461.94
2019-02-28T09:52:51.954Z,87459.81
2019-02-28T09:55:18.690Z,87458.67
2019-02-28T09:57:45.422Z,87456.44
2019-02-28T10:00:19.294Z,87459.37
2019-02-28T10:02:46.054Z,87447.83
2019-02-28T10:05:13.097Z,87446.05
2019-02-28T10:07:39.897Z,87445.29
2019-02-28T10:10:20.821Z,87442.34
2019-02-28T10:12:48.694Z,87439.17
2019-02-28T10:15:22.458Z,87437.59
2019-02-28T10:17:49.183Z,87438.52
2019-02-28T10:20:34.270Z,87431.84
2019-02-28T10:23:01.020Z,87434.50
2019-02-28T10:25:27.755Z,87426.17
2019-02-28T10:27:54.896Z,87420.28
2019-02-28T10:30:31.593Z,87423.66
2019-02-28T10:32:53.177Z,87427.19
2019-02-28T10:35:19.927Z,87428.20
2019-02-28T10:37:47.560Z,87424.05
2019-02-28T10:40:18.715Z,87416.72
2019-02-28T10:42:45.504Z,87421.75
2019-02-28T10:45:14.122Z,87416.39
2019-02-28T10:47:40.930Z,87414.30
2019-02-28T10:50:20.228Z,87407.46
2019-02-28T10:52:47.015Z,87409.48
2019-02-28T10:55:15.975Z,87399.80
2019-02-28T10:57:42.823Z,87400.25
2019-02-28T11:00:36.034Z,87392.33
2019-02-28T11:03:02.907Z,87385.66
2019-02-28T11:05:38.059Z,87375.81
2019-02-28T11:08:09.751Z,87376.31
2019-02-28T11:10:41.233Z,87368.91
2019-02-28T11:13:14.273Z,87351.41
2019-02-28T11:15:41.130Z,87344.33
2019-02-28T11:18:09.651Z,87346.52
2019-02-28T11:20:38.089Z,87337.19
2019-02-28T11:23:05.270Z,87342.55
2019-02-28T11:25:34.747Z,87341.28
2019-02-28T11:28:00.753Z,87334.59
2019-02-28T11:30:29.977Z,87328.06
2019-02-28T11:33:03.081Z,87324.31
2019-02-28T11:35:26.586Z,87316.48
2019-02-28T11:37:53.690Z,87312.30
2019-02-28T11:40:22.603Z,87304.08
2019-02-28T11:42:49.444Z,87295.33
2019-02-28T11:45:31.992Z,87296.55
2019-02-28T11:48:01.840Z,87288.81
2019-02-28T11:50:28.638Z,87285.28
2019-02-28T11:52:55.408Z,87286.05
2019-02-28T11:55:22.265Z,87276.82
2019-02-28T11:57:49.063Z,87267.89
2019-02-28T12:00:28.187Z,87262.87
2019-02-28T12:02:59.865Z,87266.03
2019-02-28T12:05:24.108Z,87269.44
2019-02-28T12:07:50.864Z,87263.52
2019-02-28T12:10:17.751Z,87259.04
2019-02-28T12:12:45.364Z,87241.48
2019-02-28T12:15:16.078Z,87245.61
2019-02-28T12:17:42.914Z,87242.02
2019-02-28T12:20:12.469Z,87227.98
2019-02-28T12:22:39.235Z,87234.31
2019-02-28T12:25:10.327Z,87230.71
2019-02-28T12:27:40.248Z,87224.83
2019-02-28T12:30:15.381Z,87225.84
2019-02-28T12:32:43.447Z,87214.56
2019-02-28T12:35:11.181Z,87215.14
2019-02-28T12:37:38.075Z,87221.97
2019-02-28T12:40:22.062Z,87216.79
2019-02-28T12:42:48.849Z,87212.05
2019-02-28T12:45:24.412Z,87211.23
2019-02-28T12:47:51.638Z,87212.05
2019-02-28T12:50:18.597Z,87211.23
2019-02-28T12:52:48.854Z,87211.14
2019-02-28T12:55:18.567Z,87205.22
2019-02-28T12:57:45.390Z,87210.45
2019-02-28T13:00:38.135Z,87208.69
2019-02-28T13:03:04.968Z,87214.45
2019-02-28T13:05:31.787Z,87212.81
2019-02-28T13:07:58.724Z,87215.18
2019-02-28T13:10:27.993Z,87203.95
2019-02-28T13:13:05.253Z,87201.98
2019-02-28T13:15:22.880Z,87190.57
2019-02-28T13:17:50.198Z,87187.75
2019-02-28T13:20:34.739Z,87191.12
2019-02-28T13:23:01.475Z,87200.39
2019-02-28T13:25:28.217Z,87194.20
2019-02-28T13:27:55.089Z,87186.64
2019-02-28T13:30:25.240Z,87192.88
2019-02-28T13:32:52.265Z,87186.76
2019-02-28T13:35:31.261Z,87184.15
2019-02-28T13:37:57.997Z,87196.47
2019-02-28T13:40:24.891Z,87187.97
2019-02-28T13:42:51.769Z,87186.40
2019-02-28T13:45:22.951Z,87186.34
2019-02-28T13:47:48.657Z,87189.47
2019-02-28T13:50:32.605Z,87183.14
2019-02-28T13:53:03.451Z,87187.22
2019-02-28T13:55:27.852Z,87194.03
2019-02-28T13:57:54.587Z,87197.56
2019-02-28T14:00:25.937Z,87191.23
2019-02-28T14:03:11.020Z,87176.28
2019-02-28T14:05:40.529Z,87184.86
2019-02-28T14:08:10.990Z,87183.16
2019-02-28T14:10:35.179Z,87187.44
2019-02-28T14:13:02.082Z,87189.31
2019-02-28T14:15:33.635Z,87183.46
2019-02-28T14:18:02.225Z,87173.25
2019-02-28T14:20:29.309Z,87171.64
2019-02-28T14:22:56.047Z,87175.63
2019-02-28T14:25:22.829Z,87168.36
2019-02-28T14:27:49.598Z,87162.92
2019-02-28T14:30:19.665Z,87164.06
2019-02-28T14:32:45.599Z,87151.53
2019-02-28T14:35:22.722Z,87153.41
2019-02-28T14:37:51.921Z,87156.13
2019-02-28T14:40:17.939Z,87159.97
2019-02-28T14:42:45.407Z,87166.63
2019-02-28T14:45:24.426Z,87175.14
2019-02-28T14:47:57.056Z,87172.02
2019-02-28T14:50:19.978Z,87170.42
2019-02-28T14:52:52.171Z,87176.23
2019-02-28T14:55:20.002Z,87173.52
2019-02-28T14:57:48.897Z,87178.86
2019-02-28T15:00:27.763Z,87180.03
2019-02-28T15:02:54.651Z,87166.39
2019-02-28T15:05:21.671Z,87172.67
2019-02-28T15:07:48.932Z,87173.14
2019-02-28T15:10:21.644Z,87172.86
2019-02-28T15:12:48.402Z,87170.38
2019-02-28T15:15:19.565Z,87171.63
2019-02-28T15:17:46.319Z,87174.66
2019-02-28T15:20:13.752Z,87163.98
2019-02-28T15:22:40.627Z,87163.89
2019-02-28T15:25:15.262Z,87161.48
2019-02-28T15:27:43.470Z,87158.11
2019-02-28T15:30:30.515Z,87152.10
2019-02-28T15:32:58.204Z,87153.61
2019-02-28T15:35:24.953Z,87154.34
2019-02-28T15:37:51.698Z,87150.21
2019-02-28T15:40:27.661Z,87154.09
2019-02-28T15:42:54.407Z,87147.73
2019-02-28T15:45:21.219Z,87140.30
2019-02-28T15:47:48.024Z,87137.46
2019-02-28T15:50:17.185Z,87141.77
2019-02-28T15:52:44.002Z,87136.26
2019-02-28T15:55:17.137Z,87141.17
2019-02-28T15:57:48.259Z,87142.94
2019-02-28T16:00:25.089Z,87141.91
2019-02-28T16:02:51.823Z,87144.63
2019-02-28T16:05:18.761Z,87147.16
2019-02-28T16:07:45.641Z,87144.91
2019-02-28T16:10:23.042Z,87145.50
2019-02-28T16:12:51.097Z,87142.33
2019-02-28T16:15:18.091Z,87145.92
2019-02-28T16:17:44.940Z,87146.50
2019-02-28T16:20:13.509Z,87146.88
2019-02-28T16:22:40.565Z,87149.13
2019-02-28T16:25:18.462Z,87143.12
2019-02-28T16:27:45.285Z,87152.11
2019-02-28T16:30:15.732Z,87157.17
2019-02-28T16:32:45.576Z,87157.88
2019-02-28T16:35:14.587Z,87158.59
2019-02-28T16:37:41.027Z,87163.98
2019-02-28T16:40:11.950Z,87163.58
2019-02-28T16:42:38.726Z,87167.52
2019-02-28T16:45:10.565Z,87162.75
2019-02-28T16:47:37.341Z,87163.44
2019-02-28T16:50:08.690Z,87162.84
2019-02-28T16:52:37.327Z,87165.04
2019-02-28T16:55:08.133Z,87164.31
2019-02-28T16:57:34.926Z,87164.86
2019-02-28T17:00:04.086Z,87169.45
2019-02-28T17:02:32.183Z,87165.06
2019-02-28T17:04:59.676Z,87172.11
2019-02-28T17:07:26.621Z,87176.31
2019-02-28T17:09:53.357Z,87180.52
2019-02-28T17:12:20.129Z,87179.11
2019-02-28T17:14:48.308Z,87182.98
2019-02-28T17:17:15.460Z,87187.20
2019-02-28T17:19:42.216Z,87187.87
2019-02-28T17:22:08.991Z,87188.56
2019-02-28T17:24:35.755Z,87189.22
2019-02-28T17:27:06.128Z,87186.88
2019-02-28T17:29:31.079Z,87187.92
2019-02-28T17:31:57.847Z,87182.97
2019-02-28T17:34:25.286Z,87181.20
2019-02-28T17:36:52.304Z,87182.48
2019-02-28T17:39:19.195Z,87180.20
2019-02-28T17:41:46.270Z,87179.56
2019-02-28T17:44:27.330Z,87185.63
2019-02-28T17:47:02.510Z,87194.02
2019-02-28T17:49:46.671Z,87192.83
2019-02-28T17:52:24.973Z,87192.66
2019-02-28T17:55:31.147Z,87191.51
2019-02-28T17:58:06.726Z,87195.34
2019-02-28T18:00:48.192Z,87196.96
2019-02-28T18:03:58.350Z,87199.65
2019-02-28T18:07:13.222Z,87200.09
2019-02-28T18:10:08.079Z,87198.56
2019-02-28T18:12:55.432Z,87207.56
2019-02-28T18:15:42.099Z,87207.05
2019-02-28T18:18:48.191Z,87211.22
2019-02-28T18:21:50.910Z,87206.95
2019-02-28T18:25:14.082Z,87202.77
2019-02-28T18:27:58.810Z,87205.95
2019-02-28T18:31:07.698Z,87202.92
2019-02-28T18:33:35.130Z,87204.05
2019-02-28T18:36:05.114Z,87211.13
2019-02-28T18:38:35.650Z,87208.30
2019-02-28T18:41:05.421Z,87222.08
2019-02-28T18:43:29.763Z,87219.86
2019-02-28T18:45:57.740Z,87216.63
2019-02-28T18:48:25.027Z,87220.55
2019-02-28T18:50:52.155Z,87209.47
2019-02-28T18:53:19.325Z,87214.30
2019-02-28T18:55:46.441Z,87217.95
2019-02-28T18:58:13.657Z,87217.68
2019-02-28T19:00:40.803Z,87219.34
2019-02-28T19:03:07.863Z,87216.59
2019-02-28T19:05:34.973Z,87222.87
2019-02-28T19:08:02.104Z,87221.89
2019-02-28T19:10:29.195Z,87215.44
2019-02-28T19:12:56.356Z,87223.00
2019-02-28T19:15:23.510Z,87226.63
2019-02-28T19:17:50.555Z,87223.20
2019-02-28T19:20:17.758Z,87212.52
2019-02-28T19:22:44.899Z,87215.22
2019-02-28T19:25:12.051Z,87226.03
2019-02-28T19:27:38.876Z,87225.53
2019-02-28T19:30:12.806Z,87235.03
2019-02-28T19:32:39.847Z,87235.31
2019-02-28T19:35:07.025Z,87236.75
2019-02-28T19:37:34.164Z,87240.74
2019-02-28T19:40:01.055Z,87241.77
2019-02-28T19:42:27.857Z,87242.03
2019-02-28T19:44:54.621Z,87242.11
2019-02-28T19:47:21.509Z,87242.43
2019-02-28T19:49:48.776Z,87245.53
2019-02-28T19:52:15.944Z,87244.48
2019-02-28T19:54:43.003Z,87238.02
2019-02-28T19:57:10.071Z,87240.35
2019-02-28T19:59:36.837Z,87245.77
2019-02-28T20:02:04.345Z,87251.50
2019-02-28T20:04:31.121Z,87253.63
2019-02-28T20:06:57.943Z,87266.88
2019-02-28T20:09:24.671Z,87272.73
2019-02-28T20:11:51.414Z,87272.94
2019-02-28T20:14:18.272Z,87278.28
2019-02-28T20:16:45.051Z,87278.34
2019-02-28T20:19:11.846Z,87274.73
2019-02-28T20:21:38.712Z,87274.52
2019-02-28T20:24:05.958Z,87278.95
2019-02-28T20:26:33.086Z,87275.95
2019-02-28T20:29:00.032Z,87273.48
2019-02-28T20:31:27.022Z,87278.36
2019-02-28T20:33:53.757Z,87274.98
2019-02-28T20:36:20.806Z,87273.93
2019-02-28T20:38:47.531Z,87269.01
2019-02-28T20:41:14.322Z,87271.86
2019-02-28T20:43:41.151Z,87275.58
2019-02-28T20:46:07.908Z,87271.00
2019-02-28T20:48:34.644Z,87277.77
2019-02-28T20:51:01.433Z,87271.61
2019-02-28T20:53:28.163Z,87274.88
2019-02-28T20:55:54.905Z,87269.46
2019-02-28T20:58:21.706Z,87274.68
2019-02-28T21:00:48.446Z,87274.58
2019-02-28T21:03:15.197Z,87273.33
2019-02-28T21:05:41.973Z,87269.40
2019-02-28T21:08:08.708Z,87263.08
2019-02-28T21:10:35.447Z,87267.11
2019-02-28T21:13:02.361Z,87260.68
2019-02-28T21:15:32.652Z,87265.55
2019-02-28T21:17:59.415Z,87256.25
2019-02-28T21:20:26.201Z,87246.11
2019-02-28T21:22:52.928Z,87249.56
2019-02-28T21:25:19.682Z,87245.33
2019-02-28T21:27:46.447Z,87243.14
2019-02-28T21:30:20.014Z,87246.64
2019-02-28T21:32:46.798Z,87250.10
2019-02-28T21:35:15.042Z,87240.23
2019-02-28T21:37:41.879Z,87230.05
2019-02-28T21:40:12.852Z,87237.58
2019-02-28T21:42:39.588Z,87235.92
2019-02-28T21:45:11.593Z,87237.16
2019-02-28T21:47:40.135Z,87234.86
2019-02-28T21:50:11.283Z,87238.66
2019-02-28T21:52:38.084Z,87231.82
2019-02-28T21:55:17.100Z,87234.55
2019-02-28T21:57:43.896Z,87233.91
2019-02-28T22:00:26.220Z,87235.38
2019-02-28T22:02:53.013Z,87232.47
2019-02-28T22:05:19.848Z,87234.34
2019-02-28T22:07:46.590Z,87229.14
2019-02-28T22:10:14.815Z,87224.94
2019-02-28T22:12:41.593Z,87217.20
2019-02-28T22:15:16.040Z,87214.59
2019-02-28T22:17:44.564Z,87208.47
2019-02-28T22:20:15.556Z,87215.20
2019-02-28T22:22:46.855Z,87223.98
2019-02-28T22:25:16.144Z,87227.89
2019-02-28T22:27:45.867Z,87225.05
2019-02-28T22:30:21.041Z,87221.15
2019-02-28T22:32:47.771Z,87219.42
2019-02-28T22:35:19.340Z,87223.67
2019-02-28T22:37:46.216Z,87221.15
2019-02-28T22:40:13.429Z,87214.78
2019-02-28T22:42:40.223Z,87220.65
2019-02-28T22:45:07.231Z,87223.25
2019-02-28T22:47:33.977Z,87216.66
2019-02-28T22:50:07.631Z,87208.42
2019-02-28T22:52:37.436Z,87201.10
2019-02-28T22:55:07.255Z,87200.23
2019-02-28T22:57:34.375Z,87198.95
2019-02-28T23:00:01.196Z,87190.95
2019-02-28T23:02:29.224Z,87196.35
2019-02-28T23:04:56.067Z,87194.70
2019-02-28T23:07:22.808Z,87193.48
2019-02-28T23:09:49.535Z,87190.49
2019-02-28T23:12:16.297Z,87190.27
2019-02-28T23:14:43.026Z,87191.48
2019-02-28T23:17:09.814Z,87189.19
2019-02-28T23:19:36.586Z,87188.31
2019-02-28T23:22:03.320Z,87180.84
2019-02-28T23:24:30.134Z,87173.34
2019-02-28T23:27:14.652Z,87172.27
2019-02-28T23:29:48.621Z,87171.93
2019-02-28T23:32:31.988Z,87169.47
2019-02-28T23:34:58.778Z,87169.25
2019-02-28T23:37:25.510Z,87165.88
2019-02-28T23:39:52.237Z,87165.03
2019-02-28T23:42:19.034Z,87157.65
2019-02-28T23:44:45.752Z,87151.88
2019-02-28T23:47:12.497Z,87159.03
2019-02-28T23:49:39.308Z,87161.97
2019-02-28T23:52:06.039Z,87163.08
2019-02-28T23:54:32.781Z,87158.22
2019-02-28T23:56:59.561Z,87148.66
2019-02-28T23:59:26.305Z,87147.84
